Time;durP1;ratioP1;P1;durP2;ratioP2;P2;SDS_P1;SDS_P2;PMS_P1;PMS_P2;Temp;Humidity;BMP_temperature;BMP_pressure;BME280_temperature;BME280_humidity;BME280_pressure;Samples;Min_cycle;Max_cycle;Signal;HPM_P1;HPM_P2
2022/07/24 00:01:40;;;;;;;1999.90;999.90;;;16.20;1.00;;;;;;4871493;29;20048;-89
2022/07/24 00:04:07;;;;;;;1999.90;995.38;;;15.40;1.00;;;;;;4886909;29;20135;-89
2022/07/24 00:06:32;;;;;;;1983.90;999.90;;;16.20;1.00;;;;;;4886497;29;20040;-88
2022/07/24 00:08:59;;;;;;;1999.90;997.20;;;15.60;1.00;;;;;;4901917;29;20495;-88
2022/07/24 00:11:25;;;;;;;1999.90;999.90;;;16.10;1.00;;;;;;4902388;29;20044;-88
2022/07/24 00:13:51;;;;;;;1631.43;806.08;;;16.00;1.00;;;;;;4886383;29;20489;-87
2022/07/24 00:16:16;;;;;;;1999.90;999.90;;;16.20;1.00;;;;;;4902424;29;20055;-88
2022/07/24 00:18:42;;;;;;;1999.90;999.90;;;16.10;1.00;;;;;;4886463;29;20529;-88
2022/07/24 00:21:10;;;;;;;1999.90;999.90;;;16.10;1.00;;;;;;4871304;29;20052;-88
2022/07/24 00:23:36;;;;;;;1999.90;999.90;;;16.00;1.00;;;;;;4855010;29;20060;-88
2022/07/24 00:26:08;;;;;;;1999.90;999.90;;;16.00;1.00;;;;;;4886344;29;20052;-87
2022/07/24 00:28:34;;;;;;;1999.90;999.90;;;15.90;1.00;;;;;;4886226;29;20044;-89
2022/07/24 00:31:00;;;;;;;1873.45;981.85;;;16.20;1.00;;;;;;4855306;29;20063;-88
2022/07/24 00:33:26;;;;;;;1982.22;999.90;;;15.80;1.00;;;;;;4885965;29;20084;-90
2022/07/24 00:35:51;;;;;;;1999.90;999.90;;;15.50;1.00;;;;;;4902000;29;20047;-89
2022/07/24 00:38:17;;;;;;;1999.90;999.90;;;16.00;1.00;;;;;;4855047;29;20040;-88
2022/07/24 00:40:43;;;;;;;1999.90;999.90;;;15.80;1.00;;;;;;4901733;29;20059;-89
2022/07/24 00:43:09;;;;;;;1999.90;999.90;;;15.90;1.00;;;;;;4870795;29;20059;-90
2022/07/24 00:45:36;;;;;;;1999.90;999.90;;;16.00;1.00;;;;;;4885627;29;20115;-89
2022/07/24 00:48:02;;;;;;;1999.90;999.90;;;15.90;1.00;;;;;;4855395;29;20464;-89
2022/07/24 00:50:31;;;;;;;1999.90;999.90;;;16.00;1.00;;;;;;4886316;29;20059;-88
2022/07/24 00:53:00;;;;;;;1999.90;999.90;;;16.00;1.00;;;;;;4870156;29;20104;-89
2022/07/24 00:55:27;;;;;;;1999.90;999.90;;;16.00;1.00;;;;;;4901570;29;20044;-88
2022/07/24 00:57:53;;;;;;;1999.90;999.90;;;15.80;1.00;;;;;;4870849;29;20126;-90
2022/07/24 01:00:20;;;;;;;1999.90;999.90;;;15.90;1.00;;;;;;4901315;29;20565;-90
2022/07/24 01:02:47;;;;;;;1999.90;999.90;;;16.00;1.00;;;;;;4901176;29;20048;-90
2022/07/24 01:05:13;;;;;;;1999.90;999.90;;;15.90;1.00;;;;;;4885868;29;20593;-90
2022/07/24 01:07:39;;;;;;;1999.90;999.90;;;14.90;1.00;;;;;;4885094;29;20494;-90
2022/07/24 01:10:06;;;;;;;1934.35;999.90;;;16.00;1.00;;;;;;4870543;29;20434;-90
2022/07/24 01:12:34;;;;;;;1999.90;999.90;;;16.00;1.00;;;;;;4869826;29;20082;-89
2022/07/24 01:15:00;;;;;;;1999.90;999.90;;;15.90;1.00;;;;;;4885563;29;20048;-89
2022/07/24 01:17:35;;;;;;;1999.90;999.90;;;16.00;1.00;;;;;;4885537;29;20056;-89
2022/07/24 01:20:05;;;;;;;1958.65;999.90;;;16.10;1.00;;;;;;4884926;29;20489;-88
2022/07/24 01:22:34;;;;;;;1928.93;999.90;;;15.90;1.00;;;;;;4870890;29;20056;-89
2022/07/24 01:25:00;;;;;;;1999.90;998.67;;;16.00;1.00;;;;;;4901034;29;20088;-88
2022/07/24 01:27:26;;;;;;;1999.90;999.90;;;16.10;1.00;;;;;;4900634;29;20098;-90
2022/07/24 01:29:52;;;;;;;1999.90;999.90;;;16.00;1.00;;;;;;4869627;29;20063;-90
2022/07/24 01:32:21;;;;;;;1994.82;999.90;;;16.10;1.00;;;;;;4869650;29;20490;-88
2022/07/24 01:34:49;;;;;;;1999.90;999.90;;;16.00;1.00;;;;;;4901055;29;20044;-89
2022/07/24 01:37:15;;;;;;;1999.90;999.90;;;15.90;1.00;;;;;;4885082;29;20108;-89
2022/07/24 01:39:41;;;;;;;1999.90;999.90;;;16.00;1.00;;;;;;4916291;29;20048;-91
2022/07/24 01:42:07;;;;;;;1944.90;999.90;;;16.10;1.00;;;;;;4869794;29;20048;-89
2022/07/24 01:44:32;;;;;;;1999.90;999.90;;;16.10;1.00;;;;;;4868819;29;20477;-89
2022/07/24 01:47:10;;;;;;;1999.90;999.90;;;16.00;1.00;;;;;;4871775;29;20184;-90
2022/07/24 01:49:36;;;;;;;1999.90;999.90;;;15.30;1.00;;;;;;4869584;29;20048;-91
2022/07/24 01:52:02;;;;;;;1999.90;999.90;;;15.90;1.00;;;;;;4884882;29;20056;-89
2022/07/24 01:54:28;;;;;;;1999.90;999.90;;;16.00;1.00;;;;;;4869614;29;20052;-90
2022/07/24 01:56:53;;;;;;;1999.90;999.90;;;16.00;1.00;;;;;;4900623;29;20108;-88
2022/07/24 01:59:19;;;;;;;1999.90;999.90;;;16.00;1.00;;;;;;4900392;29;20544;-88
2022/07/24 02:01:45;;;;;;;1999.90;999.90;;;16.00;1.00;;;;;;4869309;29;20052;-89
2022/07/24 02:04:11;;;;;;;1945.15;999.90;;;16.00;1.00;;;;;;4900242;29;20083;-88
2022/07/24 02:06:36;;;;;;;1999.90;999.90;;;16.10;1.00;;;;;;4884204;29;20100;-88
2022/07/24 02:09:05;;;;;;;1999.90;999.90;;;15.90;1.00;;;;;;4869782;29;20401;-88
2022/07/24 02:11:31;;;;;;;1999.90;999.90;;;16.00;1.00;;;;;;4884603;29;20465;-89
2022/07/24 02:13:59;;;;;;;1999.90;999.90;;;15.90;1.00;;;;;;4900286;29;20139;-88
2022/07/24 02:16:29;;;;;;;1963.43;999.90;;;15.90;1.00;;;;;;4884595;29;20048;-88
2022/07/24 02:18:55;;;;;;;1999.90;999.90;;;15.90;1.00;;;;;;4884232;29;20048;-88
2022/07/24 02:21:21;;;;;;;1999.90;999.90;;;15.90;1.00;;;;;;4899834;29;20516;-88
2022/07/24 02:23:46;;;;;;;1999.90;999.90;;;15.90;1.00;;;;;;4868426;29;20094;-88
2022/07/24 02:26:12;;;;;;;1999.90;999.90;;;15.90;1.00;;;;;;4900056;29;20058;-87
2022/07/24 02:28:38;;;;;;;1999.90;999.90;;;;;;;;;;4868479;29;20135;-90
2022/07/24 02:31:04;;;;;;;1999.90;999.90;;;15.90;1.00;;;;;;4899540;29;20064;-89
2022/07/24 02:33:30;;;;;;;1999.90;999.90;;;14.50;1.00;;;;;;4899701;29;20520;-89
2022/07/24 02:35:56;;;;;;;1999.90;999.90;;;15.80;1.00;;;;;;4868695;29;20505;-89
2022/07/24 02:38:22;;;;;;;1999.90;999.90;;;15.80;1.00;;;;;;4883811;29;20164;-88
2022/07/24 02:40:47;;;;;;;1999.90;999.90;;;15.70;1.00;;;;;;4853416;29;20398;-89
2022/07/24 02:43:13;;;;;;;1999.90;999.90;;;15.70;1.00;;;;;;4884451;29;20048;-89
2022/07/24 02:45:39;;;;;;;1999.90;999.90;;;15.70;1.00;;;;;;4868518;29;20044;-88
2022/07/24 02:48:05;;;;;;;1999.90;999.90;;;15.70;1.00;;;;;;4868518;29;20055;-88
2022/07/24 02:50:38;;;;;;;1999.90;999.90;;;15.30;1.00;;;;;;4868753;29;20506;-89
2022/07/24 02:53:05;;;;;;;1999.90;999.90;;;15.70;1.00;;;;;;4869201;29;20371;-89
2022/07/24 02:55:31;;;;;;;1850.30;999.90;;;15.80;1.00;;;;;;4884347;29;20437;-88
2022/07/24 02:57:57;;;;;;;1999.90;999.90;;;15.70;1.00;;;;;;4883834;29;20055;-88
2022/07/24 03:00:23;;;;;;;1999.90;999.90;;;15.70;1.00;;;;;;4884220;29;20564;-89
2022/07/24 03:02:49;;;;;;;1999.90;999.90;;;15.80;1.00;;;;;;4868257;29;20115;-89
2022/07/24 03:05:16;;;;;;;1999.90;999.90;;;15.80;1.00;;;;;;4884220;29;20067;-88
2022/07/24 03:07:41;;;;;;;1999.90;999.90;;;15.80;1.00;;;;;;4867908;29;20055;-89
2022/07/24 03:10:13;;;;;;;1999.90;999.90;;;15.80;1.00;;;;;;4899890;29;20052;-89
2022/07/24 03:12:39;;;;;;;1999.90;999.90;;;15.90;1.00;;;;;;4899397;29;20052;-91
2022/07/24 03:15:11;;;;;;;1999.90;999.90;;;15.10;1.00;;;;;;4884035;29;20052;-88
2022/07/24 03:17:37;;;;;;;1999.90;999.90;;;15.80;1.00;;;;;;4883782;29;20108;-89
2022/07/24 03:20:07;;;;;;;1999.90;999.90;;;16.70;1.00;;;;;;4884066;29;20048;-90
2022/07/24 03:22:33;;;;;;;1999.90;999.90;;;15.70;1.00;;;;;;4868140;29;20048;-89
2022/07/24 03:25:01;;;;;;;1999.90;999.90;;;15.80;1.00;;;;;;4899437;29;20055;-89
2022/07/24 03:27:27;;;;;;;1999.90;999.90;;;15.80;1.00;;;;;;4899022;29;20083;-89
2022/07/24 03:29:53;;;;;;;1999.90;999.90;;;15.80;1.00;;;;;;4883629;29;20110;-88
2022/07/24 03:32:19;;;;;;;1999.90;999.90;;;15.80;1.00;;;;;;4884115;29;20501;-88
2022/07/24 03:34:44;;;;;;;1935.45;999.90;;;15.70;1.00;;;;;;4884168;29;20048;-90
2022/07/24 03:37:10;;;;;;;1999.90;999.90;;;15.80;1.00;;;;;;4868741;29;20402;-91
2022/07/24 03:39:41;;;;;;;1999.90;999.90;;;15.80;1.00;;;;;;4900268;29;20052;-89
2022/07/24 03:42:09;;;;;;;1999.90;999.90;;;14.90;1.00;;;;;;4884894;29;20056;-90
2022/07/24 03:44:41;;;;;;;1999.90;999.90;;;15.90;1.00;;;;;;4884746;29;20552;-90
2022/07/24 03:47:07;;;;;;;1999.90;999.90;;;15.90;1.00;;;;;;4869699;29;20048;-91
2022/07/24 03:49:36;;;;;;;1999.90;999.90;;;15.90;1.00;;;;;;4884389;29;20048;-91
2022/07/24 03:52:02;;;;;;;1999.90;999.90;;;15.90;1.00;;;;;;4892840;29;20279;-90
2022/07/24 03:54:28;;;;;;;1999.90;999.90;;;15.90;1.00;;;;;;4883631;29;20056;-90
2022/07/24 03:56:55;;;;;;;1999.90;999.90;;;16.00;1.00;;;;;;4868294;29;20382;-91
2022/07/24 03:59:20;;;;;;;1999.90;999.90;;;15.90;1.00;;;;;;4868445;29;20076;-90
2022/07/24 04:01:46;;;;;;;1999.90;999.90;;;16.00;1.00;;;;;;4852774;29;20457;-90
2022/07/24 04:04:12;;;;;;;1999.90;999.90;;;16.00;1.00;;;;;;4899281;29;20127;-90
2022/07/24 04:06:41;;;;;;;1999.90;999.90;;;16.00;1.00;;;;;;4868479;29;20048;-91
2022/07/24 04:09:13;;;;;;;1999.90;999.90;;;16.10;1.00;;;;;;4902018;29;20052;-90
2022/07/24 04:11:38;;;;;;;1999.90;999.90;;;16.00;1.00;;;;;;4887189;29;20048;-90
2022/07/24 04:14:08;;;;;;;1999.90;999.90;;;16.00;1.00;;;;;;4886587;29;20054;-90
2022/07/24 04:16:33;;;;;;;1999.90;999.90;;;16.00;1.00;;;;;;4871463;29;20207;-90
2022/07/24 04:18:59;;;;;;;1999.90;999.90;;;16.10;1.00;;;;;;4902097;29;20142;-90
2022/07/24 04:21:25;;;;;;;1999.90;999.90;;;16.10;1.00;;;;;;4902223;29;20040;-91
2022/07/24 04:23:51;;;;;;;1999.90;999.90;;;16.10;1.00;;;;;;4901608;29;20048;-90
2022/07/24 04:26:17;;;;;;;1804.93;999.90;;;16.00;1.00;;;;;;4902452;29;20048;-90
2022/07/24 04:28:44;;;;;;;1999.90;999.90;;;14.70;1.00;;;;;;4917906;29;20044;-91
2022/07/24 04:31:10;;;;;;;1999.90;999.90;;;16.00;1.00;;;;;;4885757;29;20064;-90
2022/07/24 04:33:39;;;;;;;1999.90;999.90;;;16.10;1.00;;;;;;4886656;29;20063;-90
2022/07/24 04:36:06;;;;;;;1999.90;999.90;;;16.10;1.00;;;;;;4871401;29;20056;-91
2022/07/24 04:38:34;;;;;;;1999.90;999.90;;;15.80;1.00;;;;;;4884897;29;20068;-91
2022/07/24 04:41:09;;;;;;;1689.95;999.90;;;16.10;1.00;;;;;;4887146;29;20572;-91
2022/07/24 04:43:38;;;;;;;1999.90;999.90;;;16.10;1.00;;;;;;4870660;29;20079;-90
2022/07/24 04:46:07;;;;;;;1904.03;999.90;;;16.10;1.00;;;;;;4870586;29;20067;-91
2022/07/24 04:48:33;;;;;;;1999.90;999.90;;;16.80;1.00;;;;;;4870854;29;20044;-91
2022/07/24 04:50:58;;;;;;;1999.90;999.90;;;16.10;1.00;;;;;;4886176;29;20600;-90
2022/07/24 04:53:24;;;;;;;1857.70;999.90;;;16.30;1.00;;;;;;4901597;29;20056;-90
2022/07/24 04:55:50;;;;;;;1999.90;999.90;;;16.20;1.00;;;;;;4870586;29;20087;-91
2022/07/24 04:58:19;;;;;;;1999.90;994.40;;;16.30;1.00;;;;;;4870507;29;20059;-91
2022/07/24 05:00:44;;;;;;;1999.90;999.90;;;16.40;1.00;;;;;;4871348;29;20096;-90
2022/07/24 05:03:13;;;;;;;1999.90;999.90;;;16.30;1.00;;;;;;4885444;29;20044;-90
2022/07/24 05:05:41;;;;;;;1955.85;999.90;;;16.40;1.00;;;;;;4901913;29;20055;-91
2022/07/24 05:08:10;;;;;;;1646.63;999.90;;;16.30;1.00;;;;;;4885236;29;20044;-92
2022/07/24 05:10:39;;;;;;;1769.45;999.90;;;16.40;1.00;;;;;;4885600;29;20108;-92
2022/07/24 05:13:14;;;;;;;1999.90;999.90;;;16.20;1.00;;;;;;4885630;29;20493;-91
2022/07/24 05:15:40;;;;;;;1994.90;999.90;;;16.50;1.00;;;;;;4885740;29;20051;-90
2022/07/24 05:18:06;;;;;;;1727.72;999.90;;;16.50;1.00;;;;;;4868725;29;20048;-90
2022/07/24 05:20:31;;;;;;;1999.90;964.53;;;16.50;1.00;;;;;;4885647;29;20050;-90
2022/07/24 05:22:58;;;;;;;1999.90;999.90;;;16.60;1.00;;;;;;4854367;29;20055;-90
2022/07/24 05:25:24;;;;;;;1999.90;999.90;;;16.60;1.00;;;;;;4901055;29;20048;-91
2022/07/24 05:27:49;;;;;;;1999.90;999.90;;;16.60;1.00;;;;;;4885174;29;20127;-91
2022/07/24 05:30:15;;;;;;;1999.90;999.90;;;16.70;1.00;;;;;;4885177;29;20056;-90
2022/07/24 05:32:41;;;;;;;1999.90;999.90;;;16.80;1.00;;;;;;4917778;29;20066;-90
2022/07/24 05:35:12;;;;;;;1999.90;999.90;;;16.90;1.00;;;;;;4916806;29;20187;-90
2022/07/24 05:37:41;;;;;;;1999.90;999.90;;;17.00;1.00;;;;;;4869405;29;20048;-90
2022/07/24 05:40:10;;;;;;;1999.90;999.90;;;17.00;1.00;;;;;;4885418;29;20068;-90
2022/07/24 05:42:41;;;;;;;1999.90;999.90;;;17.20;1.00;;;;;;4885338;29;20090;-90
2022/07/24 05:45:10;;;;;;;1999.90;999.90;;;18.10;99.90;;;;;;4870678;29;20067;-91
2022/07/24 05:47:41;;;;;;;1999.90;999.90;;;17.40;99.90;;;;;;4900629;29;20040;-90
2022/07/24 05:50:14;;;;;;;1999.90;999.90;;;16.20;99.90;;;;;;4917578;29;20477;-91
2022/07/24 05:52:40;;;;;;;1999.90;869.72;;;17.60;99.90;;;;;;4869808;29;20044;-92
2022/07/24 05:55:15;;;;;;;1999.90;999.90;;;17.50;99.90;;;;;;4884801;29;20040;-91
2022/07/24 05:57:50;;;;;;;1999.90;999.90;;;17.50;99.90;;;;;;4885087;29;20048;-91
2022/07/24 06:00:20;;;;;;;1999.90;999.90;;;17.50;99.90;;;;;;4885622;29;20060;-91
2022/07/24 06:02:48;;;;;;;1999.90;897.65;;;17.50;99.90;;;;;;4900433;29;20515;-92
2022/07/24 06:05:15;;;;;;;1999.90;872.33;;;17.50;99.90;;;;;;4916102;29;20063;-90
2022/07/24 06:07:43;;;;;;;1999.90;999.90;;;17.60;99.90;;;;;;4900419;29;20100;-91
2022/07/24 06:10:10;;;;;;;1999.90;972.53;;;17.60;99.90;;;;;;4869847;29;20040;-90
2022/07/24 06:12:38;;;;;;;1999.90;977.20;;;17.70;99.90;;;;;;4885149;29;20402;-92
2022/07/24 06:15:05;;;;;;;1999.90;992.50;;;17.70;99.90;;;;;;4854220;29;20135;-89
2022/07/24 06:17:30;;;;;;;1999.90;963.85;;;17.80;99.90;;;;;;4900204;29;20159;-90
2022/07/24 06:19:56;;;;;;;1999.90;880.45;;;17.90;99.90;;;;;;4884553;29;20060;-90
2022/07/24 06:22:22;;;;;;;1999.90;989.25;;;17.10;99.90;;;;;;4900128;29;20044;-90
2022/07/24 06:24:50;;;;;;;1999.90;790.28;;;18.00;99.90;;;;;;4869477;29;20052;-91
2022/07/24 06:27:16;;;;;;;1999.90;819.45;;;18.10;99.90;;;;;;4868838;29;20250;-90
2022/07/24 06:29:42;;;;;;;1999.90;999.90;;;18.10;99.90;;;;;;4884379;29;20115;-92
2022/07/24 06:32:09;;;;;;;1999.90;944.50;;;18.20;99.90;;;;;;4899906;29;20086;-90
2022/07/24 06:34:44;;;;;;;1999.90;857.72;;;18.10;99.90;;;;;;4885010;29;20040;-90
2022/07/24 06:37:15;;;;;;;1999.90;846.22;;;18.40;99.90;;;;;;4885106;29;20501;-91
2022/07/24 06:39:43;;;;;;;1999.90;962.30;;;18.50;99.90;;;;;;4884702;29;20047;-90
2022/07/24 06:42:12;;;;;;;1999.90;660.50;;;18.60;99.90;;;;;;4869666;29;20059;-91
2022/07/24 06:44:38;;;;;;;1999.90;794.08;;;18.70;99.90;;;;;;4885015;29;20052;-90
2022/07/24 06:47:13;;;;;;;1999.90;597.08;;;18.80;99.90;;;;;;4885881;29;20044;-91
2022/07/24 06:49:44;;;;;;;1983.07;478.73;;;18.90;99.90;;;;;;4869283;29;20162;-91
2022/07/24 06:52:22;;;;;;;1999.90;747.15;;;19.00;99.90;;;;;;4884192;29;20143;-91
2022/07/24 06:54:49;;;;;;;1999.90;614.67;;;19.60;99.90;;;;;;4884815;29;20068;-92
2022/07/24 06:57:20;;;;;;;1999.90;708.42;;;19.20;99.90;;;;;;4885549;29;20052;-90
2022/07/24 06:59:52;;;;;;;1999.90;601.65;;;19.30;99.90;;;;;;4884997;29;20055;-91
2022/07/24 07:02:18;;;;;;;1942.07;374.20;;;18.50;99.90;;;;;;4884978;29;20127;-91
2022/07/24 07:04:47;;;;;;;1512.22;297.70;;;19.60;99.90;;;;;;4884872;29;20088;-91
2022/07/24 07:07:14;;;;;;;1999.90;999.90;;;19.70;99.90;;;;;;4884402;29;20106;-90
2022/07/24 07:09:49;;;;;;;1999.90;606.40;;;19.70;99.90;;;;;;4900461;29;20059;-91
2022/07/24 07:12:18;;;;;;;1999.90;797.15;;;19.40;99.90;;;;;;4900563;29;20048;-90
2022/07/24 07:14:46;;;;;;;1492.97;768.85;;;21.00;99.90;;;;;;4916573;29;20052;-92
2022/07/24 07:17:21;;;;;;;1039.90;921.42;;;22.20;99.90;;;;;;4884548;29;20130;-91
2022/07/24 07:19:52;;;;;;;1132.97;999.90;;;23.50;99.90;;;;;;4884604;29;20044;-94
2022/07/24 07:22:18;;;;;;;1053.22;950.92;;;24.30;99.90;;;;;;4868966;29;20499;-91
2022/07/24 07:24:43;;;;;;;1056.00;960.05;;;24.20;99.90;;;;;;4884545;29;20095;-92
2022/07/24 07:27:14;;;;;;;1023.75;930.58;;;25.30;99.90;;;;;;4884081;29;20128;-92
2022/07/24 07:29:44;;;;;;;827.80;757.97;;;26.10;99.90;;;;;;4868707;29;20108;-92
2022/07/24 07:32:33;;;;;;;823.75;755.05;;;27.00;99.90;;;;;;4869135;29;20056;-92
2022/07/24 07:35:15;;;;;;;849.92;762.97;;;27.40;99.90;;;;;;4884657;29;20083;-93
2022/07/24 07:37:46;;;;;;;637.20;585.28;;;27.60;99.90;;;;;;4883862;29;20135;-92
2022/07/24 07:40:14;;;;;;;713.22;655.25;;;27.10;99.90;;;;;;4883716;29;20048;-94
2022/07/24 07:42:43;;;;;;;582.95;539.28;;;26.30;99.90;;;;;;4886115;29;20059;-94
2022/07/24 07:45:21;;;;;;;617.05;563.53;;;25.50;99.90;;;;;;4871872;29;20135;-93
2022/07/24 07:55:20;;;;;;;808.00;736.30;;;25.00;99.90;;;;;;4896661;29;20460;-90
2022/07/24 07:57:49;;;;;;;775.03;708.58;;;23.80;99.90;;;;;;4871887;29;20048;-93
2022/07/24 08:00:16;;;;;;;765.45;699.33;;;24.20;99.90;;;;;;4886219;29;20052;-93
2022/07/24 08:03:00;;;;;;;690.13;631.90;;;25.00;99.90;;;;;;4902639;29;20458;-96
2022/07/24 08:05:29;;;;;;;506.80;470.58;;;25.70;99.90;;;;;;4873078;29;20058;-93
2022/07/24 08:07:58;;;;;;;585.08;539.35;;;26.90;99.90;;;;;;4886364;29;20044;-92
2022/07/24 08:17:43;;;;;;;901.13;807.00;;;29.50;72.60;;;;;;4879260;29;20528;-94
2022/07/24 08:31:05;;;;;;;856.03;784.10;;;26.00;80.10;;;;;;4786398;29;20057;-94
2022/07/24 08:33:48;;;;;;;917.33;835.95;;;25.90;88.60;;;;;;4773150;30;20490;-92
2022/07/24 08:36:14;;;;;;;908.50;829.55;;;26.20;89.60;;;;;;4743380;30;20067;-93
2022/07/24 08:38:46;;;;;;;924.05;844.15;;;26.50;89.60;;;;;;4758523;29;20054;-93
2022/07/24 08:41:15;;;;;;;868.50;799.80;;;26.70;83.30;;;;;;4760609;29;20188;-93
2022/07/24 08:43:43;;;;;;;896.65;820.10;;;26.50;81.20;;;;;;4775451;29;20145;-92
2022/07/24 09:00:18;;;;;;;880.28;804.75;;;27.30;58.80;;;;;;4881338;29;20083;-92
2022/07/24 09:02:47;;;;;;;860.08;784.35;;;28.10;68.30;;;;;;4870889;29;20048;-94
2022/07/24 09:05:42;;;;;;;752.08;686.33;;;30.30;63.50;;;;;;4901987;29;20087;-92
2022/07/24 09:08:17;;;;;;;838.97;768.47;;;30.60;61.10;;;;;;4860067;29;20052;-94
2022/07/24 09:11:19;;;;;;;779.75;717.47;;;30.20;34.80;;;;;;4886284;29;20048;-92
2022/07/24 09:16:59;;;;;;;;;;;;;;;;;;;;;
2022/07/24 09:23:48;;;;;;;895.65;808.38;;;30.10;30.60;;;;;;4895852;29;20038;-93
2022/07/24 09:26:49;;;;;;;824.33;747.20;;;29.70;29.30;;;;;;4889658;29;20203;-95
2022/07/24 09:29:47;;;;;;;881.33;792.15;;;28.80;33.70;;;;;;4868702;29;20420;-92
2022/07/24 09:32:25;;;;;;;939.43;850.67;;;28.40;38.30;;;;;;4885704;29;20060;-92
2022/07/24 09:34:53;;;;;;;944.35;850.33;;;29.20;36.80;;;;;;4886097;29;20087;-91
2022/07/24 09:37:28;;;;;;;847.10;772.67;;;28.60;41.10;;;;;;4901232;29;20379;-94
2022/07/24 09:40:07;;;;;;;1271.55;882.17;;;29.00;32.40;;;;;;4885574;29;20044;-92
2022/07/24 09:42:38;;;;;;;844.70;767.63;;;29.50;31.80;;;;;;4885802;29;20095;-95
2022/07/24 09:49:25;;;;;;;750.40;691.42;;;30.30;25.70;;;;;;4898094;29;20080;-94
2022/07/24 09:52:23;;;;;;;;;;;;;;;;;;;;;
2022/07/24 09:54:59;;;;;;;905.95;800.58;;;29.90;21.90;;;;;;4881296;29;20103;-91
2022/07/24 09:57:58;;;;;;;832.25;758.13;;;30.00;17.60;;;;;;4866733;29;20049;-91
2022/07/24 10:11:13;;;;;;;886.75;801.70;;;33.10;10.60;;;;;;4863321;29;20063;-95
2022/07/24 10:13:51;;;;;;;882.38;803.70;;;32.30;2.20;;;;;;4880773;29;20045;-92
2022/07/24 10:16:52;;;;;;;962.03;848.35;;;32.70;4.40;;;;;;4900209;29;20115;-89
2022/07/24 10:26:50;;;;;;;670.17;608.67;;;33.60;1.00;;;;;;4880933;29;20088;-93
2022/07/24 10:29:21;;;;;;;708.90;646.13;;;31.90;1.00;;;;;;4865296;29;20052;-94
2022/07/24 10:31:54;;;;;;;919.67;835.25;;;31.60;1.00;;;;;;4879641;29;20053;-93
2022/07/24 10:34:48;;;;;;;915.88;836.17;;;30.90;1.00;;;;;;4864361;29;20451;-94
2022/07/24 10:37:45;;;;;;;917.88;836.40;;;30.60;1.00;;;;;;4864387;29;20152;-92
2022/07/24 10:40:22;;;;;;;861.90;786.85;;;31.80;1.00;;;;;;4864865;29;20107;-92
2022/07/24 10:43:09;;;;;;;909.00;817.30;;;33.40;1.00;;;;;;4864068;29;20089;-92
2022/07/24 10:46:12;;;;;;;733.53;661.05;;;33.30;1.00;;;;;;4865388;29;20514;-92
2022/07/24 10:48:56;;;;;;;783.85;715.05;;;33.40;1.00;;;;;;4844155;29;20048;-90
2022/07/24 10:51:24;;;;;;;1394.75;928.45;;;33.50;1.00;;;;;;4865151;29;20052;-91
2022/07/24 10:53:56;;;;;;;943.45;854.30;;;31.50;1.00;;;;;;4861353;29;20060;-91
2022/07/24 10:56:38;;;;;;;889.72;807.83;;;31.00;1.00;;;;;;4865434;29;20085;-92
2022/07/24 10:59:31;;;;;;;875.55;796.17;;;31.20;1.00;;;;;;4880834;29;20067;-93
2022/07/24 11:02:27;;;;;;;927.00;841.83;;;31.50;1.00;;;;;;4865560;29;20045;-93
2022/07/24 11:05:33;;;;;;;835.65;762.50;;;31.40;1.00;;;;;;4881360;29;20398;-93
2022/07/24 11:08:17;;;;;;;530.33;483.95;;;32.90;1.00;;;;;;4790985;29;20052;-93
2022/07/24 11:10:46;;;;;;;647.30;590.10;;;33.20;1.00;;;;;;4806252;29;20091;-94
2022/07/24 11:13:43;;;;;;;659.03;599.72;;;32.40;1.00;;;;;;4844022;29;20064;-94
2022/07/24 11:16:29;;;;;;;757.75;688.65;;;32.90;1.00;;;;;;4867148;29;20092;-92
2022/07/24 11:19:07;;;;;;;809.10;734.05;;;33.10;1.00;;;;;;4869680;29;20442;-92
2022/07/24 11:29:19;;;;;;;891.55;808.47;;;31.20;1.00;;;;;;4842980;29;20075;-93
2022/07/24 11:31:50;;;;;;;853.78;779.70;;;30.90;1.00;;;;;;4838857;29;20088;-91
2022/07/24 11:34:21;;;;;;;1105.95;883.08;;;30.90;1.00;;;;;;4879863;29;20128;-94
2022/07/24 11:36:51;;;;;;;703.53;640.80;;;31.30;1.00;;;;;;4883815;29;20048;-91
2022/07/24 11:39:28;;;;;;;894.15;799.20;;;32.40;1.00;;;;;;4869009;29;20143;-92
2022/07/24 11:42:00;;;;;;;633.45;579.55;;;32.20;1.00;;;;;;4884258;29;20048;-91
2022/07/24 11:44:30;;;;;;;542.53;500.75;;;32.90;1.00;;;;;;4869178;29;20084;-93
2022/07/24 11:47:13;;;;;;;496.00;460.85;;;34.10;1.00;;;;;;4868476;29;20084;-91
2022/07/24 11:49:53;;;;;;;498.30;462.33;;;33.30;1.00;;;;;;4883658;29;20052;-92
2022/07/24 11:52:32;;;;;;;666.05;613.85;;;33.90;1.00;;;;;;4868170;29;20048;-92
2022/07/24 11:55:15;;;;;;;623.78;575.83;;;34.60;1.00;;;;;;4883917;29;20044;-91
2022/07/24 11:57:46;;;;;;;498.08;462.67;;;34.90;1.00;;;;;;4883742;29;20406;-92
2022/07/24 12:00:15;;;;;;;577.30;534.63;;;35.00;1.00;;;;;;4883464;29;20406;-90
2022/07/24 12:02:48;;;;;;;484.85;453.83;;;35.20;1.00;;;;;;4883527;29;20056;-89
2022/07/24 12:05:23;;;;;;;478.58;442.75;;;34.80;1.00;;;;;;4884021;29;20052;-94
2022/07/24 12:07:49;;;;;;;545.05;502.83;;;34.50;1.00;;;;;;4900145;29;20063;-92
2022/07/24 12:10:21;;;;;;;433.05;402.08;;;33.90;1.00;;;;;;4883842;29;20053;-94
2022/07/24 12:12:54;;;;;;;537.90;496.55;;;33.60;1.00;;;;;;4868272;29;20135;-93
2022/07/24 12:15:22;;;;;;;550.00;509.08;;;33.40;1.00;;;;;;4883823;29;20048;-92
2022/07/24 12:18:01;;;;;;;624.00;573.47;;;34.10;1.00;;;;;;4868109;29;20069;-91
2022/07/24 12:20:36;;;;;;;692.78;636.92;;;34.20;1.00;;;;;;4883691;29;20135;-91
2022/07/24 12:23:05;;;;;;;575.13;531.97;;;35.20;1.00;;;;;;4898799;29;20053;-91
2022/07/24 12:25:33;;;;;;;627.70;580.17;;;34.70;1.00;;;;;;4868511;29;20391;-91
2022/07/24 12:28:07;;;;;;;748.03;688.97;;;33.40;1.00;;;;;;4899238;29;20084;-91
2022/07/24 12:30:42;;;;;;;779.60;718.00;;;32.50;1.00;;;;;;4887963;29;20091;-95
2022/07/24 12:33:13;;;;;;;786.42;720.75;;;31.50;1.00;;;;;;4901842;29;20052;-92
2022/07/24 12:35:56;;;;;;;894.65;814.30;;;30.90;1.00;;;;;;4917854;29;20072;-92
2022/07/24 12:38:32;;;;;;;805.60;740.30;;;30.80;1.00;;;;;;4886293;29;20056;-95
2022/07/24 12:41:27;;;;;;;831.30;761.63;;;30.50;1.00;;;;;;4902509;29;20084;-93
2022/07/24 12:44:06;;;;;;;921.05;834.33;;;30.20;1.00;;;;;;4898530;29;20442;-95
2022/07/24 12:46:45;;;;;;;809.97;741.65;;;29.70;1.00;;;;;;4886163;29;20497;-92
2022/07/24 12:49:16;;;;;;;867.10;786.78;;;29.60;1.00;;;;;;4887119;29;20056;-91
2022/07/24 12:52:21;;;;;;;879.50;798.53;;;29.20;1.00;;;;;;4902016;29;20131;-93
2022/07/24 12:54:53;;;;;;;976.33;875.08;;;28.80;1.00;;;;;;4888980;29;20486;-94
2022/07/24 12:57:22;;;;;;;815.72;748.17;;;28.20;1.00;;;;;;4871667;29;20528;-92
2022/07/24 12:59:49;;;;;;;839.22;767.08;;;29.00;1.00;;;;;;4918154;29;20045;-93
2022/07/24 13:02:15;;;;;;;;;;;28.80;1.00;;;;;;4886519;29;20512;-93
2022/07/24 13:04:49;;;;;;;689.28;635.95;;;28.30;1.00;;;;;;4902078;29;19923;-92
2022/07/24 13:07:17;;;;;;;692.78;640.53;;;28.00;1.00;;;;;;4901453;29;20127;-92
2022/07/24 13:09:44;;;;;;;778.58;711.40;;;28.00;1.00;;;;;;4901732;29;20379;-90
2022/07/24 13:12:10;;;;;;;776.83;714.58;;;28.00;1.00;;;;;;4902017;29;20536;-91
2022/07/24 13:14:48;;;;;;;734.42;673.78;;;28.20;1.00;;;;;;4886836;29;20052;-92
2022/07/24 13:17:15;;;;;;;776.08;713.35;;;28.10;1.00;;;;;;4870276;29;20095;-94
2022/07/24 13:19:48;;;;;;;;;;;28.20;1.00;;;;;;4902271;29;20048;-91
2022/07/24 13:22:15;;;;;;;736.47;674.25;;;28.40;1.00;;;;;;4886170;29;20269;-92
2022/07/24 13:24:44;;;;;;;665.38;614.50;;;28.40;1.00;;;;;;4901492;29;20055;-92
2022/07/24 13:27:19;;;;;;;677.85;623.75;;;28.50;1.00;;;;;;4885467;29;20374;-91
2022/07/24 13:29:45;;;;;;;963.83;823.50;;;28.50;1.00;;;;;;4870481;29;20048;-90
2022/07/24 13:32:12;;;;;;;1481.38;905.97;;;28.40;1.00;;;;;;4869881;29;20063;-92
2022/07/24 13:34:38;;;;;;;712.17;651.13;;;27.60;1.00;;;;;;4901009;29;20048;-92
2022/07/24 13:37:06;;;;;;;784.65;720.38;;;27.50;1.00;;;;;;4885331;29;20110;-92
2022/07/24 13:39:32;;;;;;;831.88;746.70;;;28.30;1.00;;;;;;4917182;29;20056;-92
2022/07/24 13:41:58;;;;;;;655.58;604.65;;;28.20;1.00;;;;;;4900947;29;20504;-91
2022/07/24 13:44:23;;;;;;;732.55;675.60;;;28.10;1.00;;;;;;4900872;29;20052;-89
2022/07/24 13:47:02;;;;;;;798.35;732.45;;;28.30;1.00;;;;;;4900955;29;20147;-93
2022/07/24 13:49:30;;;;;;;773.33;711.67;;;28.20;1.00;;;;;;4854650;29;20097;-90